Terminal Aerodrome Forecast
Issued by NWS

Home | Current Version | Previous Version | Text Only | Print | Product List | Glossary On
Versions: 1 2 3 4 5 6 7 8 9 10 11 12 13 14 15 16 17 18 19
000
FTUS41 KCAR 040520
TAFBHB
TAF
KBHB 040520Z 0406/0506 19003KT P6SM SKC
      TEMPO 0409/0411 P6SM BCFG SCT002
     FM041300 19005KT P6SM SKC
     FM041700 19012KT P6SM SKC
     FM050500 24008KT P6SM BKN120 OVC200
      AMD LTD TO CLD VIS AND WIND=

USA.gov is the U.S. government's official web portal to all federal, state and local government web resources and services.